Time;durP1;ratioP1;P1;durP2;ratioP2;P2;SDS_P1;SDS_P2;PMS_P1;PMS_P2;Temp;Humidity;BMP_temperature;BMP_pressure;BME280_temperature;BME280_humidity;BME280_pressure;Samples;Min_cycle;Max_cycle;Signal;HPM_P1;HPM_P2
2023/08/03 00:02:21;;;;;;;8.70;4.97;;;26.10;99.90;;;;;;5032004;28;20013;-67
2023/08/03 00:04:49;;;;;;;9.07;4.85;;;26.10;99.90;;;;;;5031475;28;20178;-67
2023/08/03 00:07:15;;;;;;;11.40;5.35;;;26.10;99.90;;;;;;5033685;28;20534;-67
2023/08/03 00:09:42;;;;;;;9.20;5.70;;;26.00;99.90;;;;;;5060020;28;20029;-67
2023/08/03 00:12:09;;;;;;;9.10;5.28;;;25.90;99.90;;;;;;5035533;28;20021;-67
2023/08/03 00:14:35;;;;;;;8.35;5.38;;;26.00;99.90;;;;;;5032372;28;20044;-67
2023/08/03 00:17:01;;;;;;;10.90;5.40;;;26.00;99.90;;;;;;5031900;28;20025;-67
2023/08/03 00:19:26;;;;;;;9.70;6.22;;;26.10;99.90;;;;;;5035445;28;20049;-67
2023/08/03 00:21:52;;;;;;;13.55;5.72;;;26.00;99.90;;;;;;5033408;28;20357;-67
2023/08/03 00:24:18;;;;;;;10.60;5.97;;;26.10;99.90;;;;;;5033804;28;20120;-67
2023/08/03 00:26:44;;;;;;;8.35;5.78;;;26.10;99.90;;;;;;5044670;28;20053;-67
2023/08/03 00:29:10;;;;;;;11.00;6.53;;;26.00;99.90;;;;;;5034438;28;20030;-67
2023/08/03 00:31:35;;;;;;;8.23;5.60;;;26.10;99.90;;;;;;5026832;28;20083;-67
2023/08/03 00:34:01;;;;;;;10.45;5.88;;;26.00;99.90;;;;;;5034751;28;20041;-67
2023/08/03 00:36:27;;;;;;;8.95;5.22;;;26.10;99.90;;;;;;5034195;28;20111;-67
2023/08/03 00:38:52;;;;;;;10.02;5.13;;;26.10;99.90;;;;;;5026640;28;20041;-67
2023/08/03 00:41:18;;;;;;;9.25;5.22;;;26.00;99.90;;;;;;5027403;28;20021;-67
2023/08/03 00:43:44;;;;;;;11.25;5.50;;;25.80;99.90;;;;;;5026496;28;20036;-67
2023/08/03 00:46:09;;;;;;;12.65;6.30;;;25.90;99.90;;;;;;5032255;28;20048;-67
2023/08/03 00:48:35;;;;;;;9.52;5.68;;;25.80;99.90;;;;;;5033250;28;20459;-67
2023/08/03 00:51:01;;;;;;;12.18;5.60;;;25.90;99.90;;;;;;5034543;28;20048;-67
2023/08/03 00:53:26;;;;;;;10.00;5.03;;;25.90;99.90;;;;;;5026051;28;20034;-67
2023/08/03 00:55:52;;;;;;;9.80;5.95;;;25.90;99.90;;;;;;5029164;28;20112;-67
2023/08/03 00:58:18;;;;;;;11.70;6.07;;;25.90;99.90;;;;;;5033441;28;20483;-67
2023/08/03 01:00:43;;;;;;;11.60;5.75;;;25.90;99.90;;;;;;5030003;28;20072;-67
2023/08/03 01:03:09;;;;;;;12.27;6.03;;;25.90;99.90;;;;;;5029581;28;20026;-67
2023/08/03 01:05:35;;;;;;;13.32;6.30;;;25.90;99.90;;;;;;5029398;28;20033;-67
2023/08/03 01:08:00;;;;;;;11.38;5.72;;;25.90;99.90;;;;;;5024948;28;20018;-67
2023/08/03 01:10:28;;;;;;;9.88;5.40;;;25.90;99.90;;;;;;5034245;28;20498;-67
2023/08/03 01:12:55;;;;;;;12.88;6.38;;;25.90;99.90;;;;;;5024089;28;20029;-67
2023/08/03 01:15:21;;;;;;;11.18;5.35;;;25.90;99.90;;;;;;5029465;28;20080;-67
2023/08/03 01:17:47;;;;;;;13.20;5.95;;;25.90;99.90;;;;;;5032819;28;20021;-67
2023/08/03 01:20:13;;;;;;;10.25;5.55;;;25.90;99.90;;;;;;5031280;28;20033;-67
2023/08/03 01:22:43;;;;;;;10.38;6.03;;;26.00;99.90;;;;;;5028959;28;20088;-67
2023/08/03 01:25:10;;;;;;;11.85;5.57;;;25.90;99.90;;;;;;5011640;28;20172;-67
2023/08/03 01:27:35;;;;;;;16.13;6.28;;;26.00;99.90;;;;;;5029126;28;20033;-67
2023/08/03 01:30:02;;;;;;;9.48;5.65;;;25.90;99.90;;;;;;5018460;28;20026;-67
2023/08/03 01:32:27;;;;;;;11.45;6.35;;;25.80;99.90;;;;;;5028985;28;20483;-67
2023/08/03 01:34:53;;;;;;;12.75;5.35;;;25.70;99.90;;;;;;5024701;28;20021;-67
2023/08/03 01:37:19;;;;;;;14.48;5.43;;;25.90;99.90;;;;;;5026948;28;20400;-67
2023/08/03 01:39:45;;;;;;;13.13;5.68;;;25.90;99.90;;;;;;5032015;28;20037;-67
2023/08/03 01:42:12;;;;;;;10.98;5.30;;;25.70;99.90;;;;;;5031993;28;20471;-67
2023/08/03 01:44:46;;;;;;;12.60;5.63;;;25.80;99.90;;;;;;5033691;28;20025;-67
2023/08/03 01:47:11;;;;;;;;;;;26.00;99.90;;;;;;5029492;28;20472;-67
2023/08/03 01:49:37;;;;;;;12.70;5.93;;;25.90;99.90;;;;;;5024992;28;19913;-67
2023/08/03 01:52:03;;;;;;;10.30;5.15;;;25.90;99.90;;;;;;5030821;28;20097;-67
2023/08/03 01:54:28;;;;;;;11.10;5.57;;;25.90;99.90;;;;;;5033228;28;20052;-67
2023/08/03 01:56:54;;;;;;;9.50;5.28;;;25.90;99.90;;;;;;5021729;28;20361;-67
2023/08/03 01:59:20;;;;;;;12.48;5.80;;;25.90;99.90;;;;;;5028069;28;20502;-67
2023/08/03 02:01:46;;;;;;;10.35;5.85;;;25.90;99.90;;;;;;5027716;28;20026;-67
2023/08/03 02:04:14;;;;;;;10.45;5.25;;;25.80;99.90;;;;;;5028242;28;20057;-67
2023/08/03 02:06:40;;;;;;;11.68;5.75;;;25.70;99.90;;;;;;5031526;28;20025;-67
2023/08/03 02:09:05;;;;;;;10.50;5.60;;;25.60;99.90;;;;;;5026912;28;20468;-67
2023/08/03 02:11:34;;;;;;;12.40;5.50;;;25.60;99.90;;;;;;5029580;28;20525;-67
2023/08/03 02:14:00;;;;;;;10.65;5.45;;;25.60;99.90;;;;;;5026692;28;20026;-67
2023/08/03 02:16:26;;;;;;;7.53;4.82;;;25.60;99.90;;;;;;5027235;28;20033;-67
2023/08/03 02:18:52;;;;;;;14.23;5.75;;;25.60;99.90;;;;;;5027723;28;20029;-67
2023/08/03 02:24:58;;;;;;;10.32;5.75;;;25.60;99.90;;;;;;5027408;28;20159;-67
2023/08/03 02:27:24;;;;;;;9.43;5.07;;;25.40;99.90;;;;;;5045403;28;20029;-67
2023/08/03 02:29:49;;;;;;;11.63;6.10;;;25.50;99.90;;;;;;5025949;28;20027;-67
2023/08/03 02:32:15;;;;;;;11.98;5.68;;;25.40;99.90;;;;;;5032545;28;20033;-67
2023/08/03 02:34:41;;;;;;;10.82;5.43;;;25.60;99.90;;;;;;5029740;28;20021;-67
2023/08/03 02:37:06;;;;;;;10.27;5.80;;;25.50;99.90;;;;;;5032940;28;20048;-67
2023/08/03 02:39:32;;;;;;;10.63;6.07;;;25.40;99.90;;;;;;5032989;28;20033;-67
2023/08/03 02:41:58;;;;;;;14.43;6.05;;;25.50;99.90;;;;;;5023234;28;20036;-67
2023/08/03 02:44:23;;;;;;;11.98;5.95;;;25.60;99.90;;;;;;5031969;28;20030;-67
2023/08/03 02:46:49;;;;;;;10.57;5.70;;;25.50;99.90;;;;;;5026592;28;20033;-67
2023/08/03 02:49:15;;;;;;;12.25;5.90;;;25.60;99.90;;;;;;5042645;28;20061;-67
2023/08/03 02:51:44;;;;;;;14.95;6.18;;;25.60;99.90;;;;;;5029535;28;20112;-67
2023/08/03 02:54:09;;;;;;;8.75;5.10;;;25.60;99.90;;;;;;5032450;28;20029;-67
2023/08/03 02:56:35;;;;;;;12.65;6.43;;;25.60;99.90;;;;;;5028214;28;20495;-67
2023/08/03 02:59:00;;;;;;;12.23;5.50;;;25.70;99.90;;;;;;5028169;28;20562;-67
2023/08/03 03:01:26;;;;;;;8.55;5.82;;;25.60;99.90;;;;;;5020759;28;20449;-67
2023/08/03 03:03:52;;;;;;;9.32;5.78;;;25.60;99.90;;;;;;5023422;28;20116;-67
2023/08/03 03:06:17;;;;;;;10.75;4.95;;;25.50;99.90;;;;;;5028238;28;20053;-67
2023/08/03 03:08:43;;;;;;;7.70;4.97;;;25.60;99.90;;;;;;5027807;28;20029;-67
2023/08/03 03:11:09;;;;;;;8.77;5.25;;;25.70;99.90;;;;;;5022983;28;20409;-67
2023/08/03 03:13:34;;;;;;;11.57;6.05;;;25.70;99.90;;;;;;5027844;28;20097;-67
2023/08/03 03:16:00;;;;;;;9.15;5.90;;;25.70;99.90;;;;;;5027637;28;20045;-67
2023/08/03 03:18:25;;;;;;;15.00;5.80;;;25.60;99.90;;;;;;5019227;28;20041;-67
2023/08/03 03:20:56;;;;;;;10.35;6.03;;;25.70;99.90;;;;;;5030932;28;20379;-67
2023/08/03 03:23:22;;;;;;;10.30;5.70;;;25.60;99.90;;;;;;5038223;28;20033;-67
2023/08/03 03:25:47;;;;;;;11.02;5.63;;;25.60;99.90;;;;;;5021088;28;20029;-67
2023/08/03 03:28:13;;;;;;;9.68;5.55;;;25.60;99.90;;;;;;5020164;28;20029;-67
2023/08/03 03:30:39;;;;;;;13.05;5.63;;;25.70;99.90;;;;;;5025621;28;20464;-67
2023/08/03 03:33:04;;;;;;;12.45;5.72;;;25.80;99.90;;;;;;5017896;28;20026;-67
2023/08/03 03:35:31;;;;;;;12.65;5.75;;;25.80;99.90;;;;;;5025467;28;20033;-67
2023/08/03 03:37:56;;;;;;;12.10;5.93;;;25.70;99.90;;;;;;5030520;28;20519;-67
2023/08/03 03:40:22;;;;;;;12.75;6.00;;;25.70;99.90;;;;;;5028758;28;20072;-67
2023/08/03 03:42:47;;;;;;;10.90;6.10;;;25.60;99.90;;;;;;5034095;28;20025;-67
2023/08/03 03:45:13;;;;;;;10.00;5.78;;;25.60;99.90;;;;;;5029786;28;20487;-67
2023/08/03 03:47:39;;;;;;;13.85;6.85;;;25.70;99.90;;;;;;5030836;28;20448;-67
2023/08/03 03:50:05;;;;;;;12.98;6.03;;;25.70;99.90;;;;;;5031276;28;20017;-67
2023/08/03 03:52:31;;;;;;;7.72;5.13;;;25.60;99.90;;;;;;5035824;28;20054;-67
2023/08/03 03:54:56;;;;;;;8.43;5.32;;;25.70;99.90;;;;;;5035241;28;20117;-67
2023/08/03 03:57:22;;;;;;;11.05;5.75;;;25.70;99.90;;;;;;5046216;28;20037;-67
2023/08/03 03:59:48;;;;;;;14.10;5.93;;;25.60;99.90;;;;;;5029312;28;20508;-67
2023/08/03 04:02:13;;;;;;;11.10;5.65;;;25.60;99.90;;;;;;5035233;28;20029;-67
2023/08/03 04:04:39;;;;;;;10.45;5.90;;;25.60;99.90;;;;;;5030278;28;20030;-67
2023/08/03 04:07:05;;;;;;;10.13;6.60;;;25.70;99.90;;;;;;5035455;28;20025;-67
2023/08/03 04:09:30;;;;;;;9.20;5.65;;;25.80;99.90;;;;;;5035184;28;20029;-67
2023/08/03 04:11:56;;;;;;;12.38;5.68;;;25.80;99.90;;;;;;5030863;28;20025;-67
2023/08/03 04:14:22;;;;;;;13.07;5.85;;;25.70;99.90;;;;;;5031113;28;20041;-67
2023/08/03 04:16:47;;;;;;;10.15;5.45;;;25.70;99.90;;;;;;5029021;28;20105;-67
2023/08/03 04:19:13;;;;;;;12.15;6.10;;;25.60;99.90;;;;;;5032865;28;20472;-67
2023/08/03 04:21:39;;;;;;;14.80;6.43;;;25.60;99.90;;;;;;5029041;28;20059;-67
2023/08/03 04:24:04;;;;;;;12.60;5.97;;;25.70;99.90;;;;;;5033735;28;20030;-67
2023/08/03 04:26:30;;;;;;;12.93;5.93;;;25.60;99.90;;;;;;5030459;28;20021;-67
2023/08/03 04:28:56;;;;;;;11.75;6.38;;;25.60;99.90;;;;;;5034943;28;20116;-67
2023/08/03 04:31:22;;;;;;;9.38;5.38;;;25.70;99.90;;;;;;5033076;28;20100;-67
2023/08/03 04:33:47;;;;;;;10.80;5.30;;;25.80;99.90;;;;;;5035339;28;20068;-67
2023/08/03 04:36:13;;;;;;;14.10;6.00;;;25.80;99.90;;;;;;5034439;28;20026;-68
2023/08/03 04:38:38;;;;;;;12.10;6.65;;;25.80;99.90;;;;;;5031285;28;20042;-68
2023/08/03 04:41:05;;;;;;;14.73;5.80;;;25.80;99.90;;;;;;5032441;28;20024;-68
2023/08/03 04:43:30;;;;;;;11.20;5.95;;;25.90;99.90;;;;;;5030253;28;20048;-68
2023/08/03 04:45:56;;;;;;;12.23;6.00;;;25.70;99.90;;;;;;5037832;28;20025;-68
2023/08/03 04:48:22;;;;;;;8.57;5.28;;;25.80;99.90;;;;;;5031310;28;20098;-69
2023/08/03 04:50:48;;;;;;;9.27;5.35;;;25.80;99.90;;;;;;5026101;28;20025;-68
2023/08/03 04:53:13;;;;;;;12.38;5.82;;;25.80;99.90;;;;;;5024284;28;20065;-68
2023/08/03 04:55:40;;;;;;;12.55;6.35;;;25.80;99.90;;;;;;5045584;28;20108;-68
2023/08/03 04:58:05;;;;;;;9.88;5.80;;;25.80;99.90;;;;;;5025282;28;20048;-69
2023/08/03 05:00:31;;;;;;;10.07;5.70;;;25.70;99.90;;;;;;5028728;28;20026;-68
2023/08/03 05:02:57;;;;;;;10.85;5.47;;;25.70;99.90;;;;;;5032516;28;20120;-68
2023/08/03 05:05:22;;;;;;;8.45;5.47;;;25.70;99.90;;;;;;5022985;28;20064;-68
2023/08/03 05:07:48;;;;;;;12.05;5.65;;;25.70;99.90;;;;;;5024810;28;20029;-68
2023/08/03 05:10:14;;;;;;;10.23;6.00;;;25.80;99.90;;;;;;5023061;28;20030;-68
2023/08/03 05:12:41;;;;;;;11.55;6.00;;;25.70;99.90;;;;;;5047361;28;20026;-68
2023/08/03 05:15:08;;;;;;;8.68;5.32;;;25.80;99.90;;;;;;5027098;28;20029;-68
2023/08/03 05:17:34;;;;;;;9.73;5.32;;;25.70;99.90;;;;;;5027991;28;20030;-68
2023/08/03 05:19:59;;;;;;;8.30;5.78;;;25.80;99.90;;;;;;5010236;28;20059;-68
2023/08/03 05:22:25;;;;;;;11.70;6.57;;;25.70;99.90;;;;;;5029505;28;20022;-68
2023/08/03 05:24:54;;;;;;;13.43;6.35;;;25.70;99.90;;;;;;5026795;28;20025;-68
2023/08/03 05:27:20;;;;;;;10.80;6.07;;;25.60;99.90;;;;;;5026021;28;20045;-68
2023/08/03 05:29:45;;;;;;;15.50;6.22;;;25.60;99.90;;;;;;5033617;28;20021;-68
2023/08/03 05:32:17;;;;;;;8.23;5.32;;;25.70;99.90;;;;;;5029270;28;20494;-68
2023/08/03 05:34:42;;;;;;;12.82;5.93;;;25.70;99.90;;;;;;5032322;28;20026;-68
2023/08/03 05:37:08;;;;;;;11.60;5.85;;;25.70;99.90;;;;;;5026094;28;20052;-68
2023/08/03 05:39:34;;;;;;;11.75;6.15;;;25.60;99.90;;;;;;5024516;28;20163;-68
2023/08/03 05:42:00;;;;;;;9.30;5.63;;;25.70;99.90;;;;;;5022060;28;20022;-68
2023/08/03 05:44:29;;;;;;;9.80;5.95;;;25.70;99.90;;;;;;5026798;28;20095;-68
2023/08/03 05:46:55;;;;;;;11.27;5.85;;;25.80;99.90;;;;;;5032877;28;20017;-68
2023/08/03 05:49:25;;;;;;;9.75;5.50;;;25.80;99.90;;;;;;5024388;28;20503;-68
2023/08/03 05:51:50;;;;;;;13.15;6.10;;;25.80;99.90;;;;;;5021379;28;20026;-68
2023/08/03 05:54:18;;;;;;;10.65;6.82;;;25.80;99.90;;;;;;5026601;28;20056;-68
2023/08/03 05:56:56;;;;;;;11.15;5.57;;;25.90;99.90;;;;;;5022577;28;20037;-68
2023/08/03 05:59:23;;;;;;;13.52;6.13;;;25.90;99.90;;;;;;5021185;28;20037;-68
2023/08/03 06:01:50;;;;;;;15.13;5.63;;;25.80;99.90;;;;;;5025814;28;20052;-68
2023/08/03 06:04:16;;;;;;;12.82;6.13;;;25.80;99.90;;;;;;5019641;28;20076;-67
2023/08/03 06:06:43;;;;;;;6.60;5.35;;;25.90;99.90;;;;;;5022080;28;20029;-68
2023/08/03 06:09:11;;;;;;;8.48;5.82;;;25.90;99.90;;;;;;5026392;28;20067;-68
2023/08/03 06:11:38;;;;;;;10.18;6.40;;;25.90;99.90;;;;;;5022776;28;20112;-68
2023/08/03 06:14:05;;;;;;;9.05;5.95;;;25.90;99.90;;;;;;5029309;28;20033;-68
2023/08/03 06:16:31;;;;;;;14.18;6.80;;;25.90;99.90;;;;;;5027695;28;20422;-68
2023/08/03 06:19:00;;;;;;;12.50;6.70;;;26.00;99.90;;;;;;5022326;28;20041;-68
2023/08/03 06:21:27;;;;;;;18.00;6.35;;;26.00;99.90;;;;;;5032020;28;20549;-68
2023/08/03 06:23:57;;;;;;;15.70;6.35;;;26.00;99.90;;;;;;5029491;28;20026;-68
2023/08/03 06:26:24;;;;;;;12.70;5.93;;;26.10;99.90;;;;;;5027627;28;20104;-68
2023/08/03 06:28:53;;;;;;;17.45;6.93;;;26.00;99.90;;;;;;5023727;28;20640;-68
2023/08/03 06:31:39;;;;;;;13.73;6.20;;;26.00;99.90;;;;;;5018879;28;20037;-73
2023/08/03 06:34:08;;;;;;;14.23;6.05;;;26.10;99.90;;;;;;5022231;28;20026;-68
2023/08/03 06:36:35;;;;;;;19.85;9.85;;;26.00;99.90;;;;;;5025079;28;20021;-67
2023/08/03 06:39:01;;;;;;;11.93;6.45;;;26.00;99.90;;;;;;5029100;28;20037;-67
2023/08/03 06:41:27;;;;;;;11.25;8.25;;;26.00;99.90;;;;;;5023116;28;20116;-67
2023/08/03 06:43:54;;;;;;;14.73;7.57;;;26.00;99.90;;;;;;5018742;28;20053;-66
2023/08/03 06:46:21;;;;;;;9.75;5.68;;;26.10;99.90;;;;;;5023369;28;20036;-66
2023/08/03 06:48:47;;;;;;;13.63;6.53;;;26.20;99.90;;;;;;5031917;28;20061;-66
2023/08/03 06:51:14;;;;;;;12.05;5.70;;;26.20;99.90;;;;;;5027154;28;20104;-65
2023/08/03 06:53:40;;;;;;;11.07;6.93;;;26.20;99.90;;;;;;5025001;28;20026;-63
2023/08/03 06:56:05;;;;;;;15.20;6.22;;;26.20;99.90;;;;;;5023660;28;20386;-66
2023/08/03 07:01:53;;;;;;;10.50;5.93;;;26.20;99.90;;;;;;5019064;28;20379;-63
2023/08/03 07:04:19;;;;;;;11.60;5.80;;;26.20;99.90;;;;;;5023727;28;20104;-60
2023/08/03 07:06:46;;;;;;;11.13;6.60;;;26.20;99.90;;;;;;5030710;28;20025;-59
2023/08/03 07:09:12;;;;;;;11.35;6.00;;;26.30;99.90;;;;;;5031888;28;20100;-61
2023/08/03 07:11:37;;;;;;;13.77;6.15;;;26.40;99.90;;;;;;5031256;28;20581;-58
2023/08/03 07:14:03;;;;;;;10.38;6.35;;;26.40;99.90;;;;;;5026296;28;20067;-61
2023/08/03 07:16:29;;;;;;;14.43;6.20;;;26.50;99.90;;;;;;5031058;28;20071;-63
2023/08/03 07:18:55;;;;;;;14.88;6.60;;;26.50;99.90;;;;;;5036648;28;20498;-65
2023/08/03 07:21:21;;;;;;;20.55;7.50;;;26.60;99.90;;;;;;5034831;28;20025;-60
2023/08/03 07:23:46;;;;;;;13.38;6.28;;;26.60;99.90;;;;;;5036913;28;20040;-64
2023/08/03 07:26:16;;;;;;;9.88;5.97;;;26.70;99.90;;;;;;5033185;28;20021;-64
2023/08/03 07:28:42;;;;;;;10.70;5.60;;;26.70;99.90;;;;;;5031757;28;20083;-64
2023/08/03 07:31:14;;;;;;;10.63;5.82;;;26.70;99.90;;;;;;5019850;28;20040;-63
2023/08/03 07:33:40;;;;;;;10.60;6.03;;;26.70;99.90;;;;;;5026502;28;20018;-62
2023/08/03 07:36:05;;;;;;;10.00;6.20;;;26.70;99.90;;;;;;5022294;28;20391;-63
2023/08/03 07:38:31;;;;;;;10.80;5.95;;;26.80;99.90;;;;;;5021871;28;20038;-64
2023/08/03 07:40:57;;;;;;;9.02;5.72;;;26.90;99.90;;;;;;5036364;28;20383;-63
2023/08/03 07:43:23;;;;;;;10.45;6.28;;;26.90;99.90;;;;;;5030787;28;20055;-63
2023/08/03 07:45:48;;;;;;;16.88;14.25;;;26.90;99.90;;;;;;5023831;28;20029;-79
2023/08/03 07:48:14;;;;;;;18.13;11.55;;;27.00;99.90;;;;;;5022095;28;20483;-81
2023/08/03 07:50:40;;;;;;;13.13;9.68;;;27.00;99.90;;;;;;5034033;28;20026;-76
2023/08/03 07:53:05;;;;;;;14.43;9.32;;;27.10;99.90;;;;;;5034253;28;20037;-61
2023/08/03 07:55:34;;;;;;;13.23;6.72;;;27.10;99.90;;;;;;5025227;28;20072;-60
2023/08/03 07:57:59;;;;;;;12.73;6.63;;;27.20;99.90;;;;;;5031858;28;20045;-59
2023/08/03 08:00:25;;;;;;;9.98;7.20;;;27.20;99.90;;;;;;5028533;28;20390;-67
2023/08/03 08:02:51;;;;;;;9.27;6.32;;;27.30;99.90;;;;;;5023066;28;20040;-67
2023/08/03 08:05:16;;;;;;;13.55;6.22;;;27.30;99.90;;;;;;5035285;28;20501;-61
2023/08/03 08:07:42;;;;;;;10.57;5.57;;;27.40;99.90;;;;;;5033044;28;20032;-63
2023/08/03 08:10:11;;;;;;;8.45;5.88;;;27.50;99.90;;;;;;5033049;28;20036;-67
2023/08/03 08:12:37;;;;;;;10.77;5.70;;;27.60;99.90;;;;;;5021922;28;20068;-67
2023/08/03 08:15:04;;;;;;;10.73;6.97;;;27.80;99.90;;;;;;5027349;28;20475;-64
2023/08/03 08:17:29;;;;;;;12.93;6.45;;;27.90;99.90;;;;;;5021941;28;20084;-71
2023/08/03 08:19:59;;;;;;;11.05;5.72;;;28.00;99.90;;;;;;5031109;28;20391;-68
2023/08/03 08:22:25;;;;;;;14.18;6.40;;;28.10;99.90;;;;;;5033935;28;20021;-69
2023/08/03 08:24:50;;;;;;;9.95;6.65;;;28.10;99.90;;;;;;5030218;28;20040;-66
2023/08/03 08:27:19;;;;;;;11.23;6.35;;;28.10;99.90;;;;;;5023781;28;20108;-59
2023/08/03 08:29:46;;;;;;;17.35;7.63;;;28.10;99.90;;;;;;5032946;28;20104;-61
2023/08/03 08:32:11;;;;;;;12.00;6.22;;;28.00;99.90;;;;;;5021608;28;20022;-61
2023/08/03 08:34:37;;;;;;;10.35;5.93;;;27.90;99.90;;;;;;5028802;28;20136;-64
2023/08/03 08:37:03;;;;;;;9.10;6.53;;;27.80;99.90;;;;;;5028985;28;20033;-61
2023/08/03 08:39:29;;;;;;;8.68;5.15;;;27.80;99.90;;;;;;5035521;28;20479;-63
2023/08/03 08:41:55;;;;;;;10.75;6.05;;;27.70;99.90;;;;;;5030693;28;20562;-65
2023/08/03 08:44:21;;;;;;;12.23;6.45;;;27.60;99.90;;;;;;5023906;28;20403;-69
2023/08/03 08:46:47;;;;;;;12.95;6.25;;;27.60;99.90;;;;;;5032349;28;20021;-63
2023/08/03 08:49:13;;;;;;;93.38;75.18;;;27.70;99.90;;;;;;5034815;28;20130;-64
2023/08/03 08:51:44;;;;;;;13.40;10.32;;;27.80;99.90;;;;;;5041010;28;20053;-67
2023/08/03 08:54:12;;;;;;;14.93;10.80;;;27.80;99.90;;;;;;5033783;28;20091;-65
2023/08/03 08:56:38;;;;;;;11.68;6.97;;;27.80;99.90;;;;;;5030370;28;20403;-65
2023/08/03 08:59:03;;;;;;;11.93;7.03;;;27.70;99.90;;;;;;5030831;28;20050;-64
2023/08/03 09:01:50;;;;;;;10.90;7.53;;;27.70;99.90;;;;;;5028858;28;20046;-66
2023/08/03 09:04:27;;;;;;;12.35;6.85;;;27.70;99.90;;;;;;5027156;28;20033;-69
2023/08/03 09:06:53;;;;;;;10.88;6.63;;;27.80;99.90;;;;;;5028557;28;20407;-63
2023/08/03 09:09:27;;;;;;;13.60;7.15;;;27.90;99.90;;;;;;5029244;28;20026;-67
2023/08/03 09:11:55;;;;;;;10.60;6.28;;;27.90;99.90;;;;;;5031040;28;20029;-60
2023/08/03 09:14:21;;;;;;;10.88;6.97;;;27.90;99.90;;;;;;5025406;28;20030;-60
2023/08/03 09:16:48;;;;;;;9.63;6.18;;;28.00;99.90;;;;;;5029900;28;20100;-59
2023/08/03 09:19:13;;;;;;;11.85;6.68;;;27.90;99.90;;;;;;5016387;28;20050;-71
2023/08/03 09:21:39;;;;;;;11.93;5.90;;;27.90;99.90;;;;;;5030671;28;20018;-66
2023/08/03 09:24:17;;;;;;;9.93;5.70;;;27.90;99.90;;;;;;5032087;28;20087;-63
2023/08/03 09:26:42;;;;;;;11.93;6.60;;;28.00;99.90;;;;;;5027533;28;20024;-64
2023/08/03 09:29:13;;;;;;;9.52;5.53;;;28.00;99.90;;;;;;5021970;28;20017;-67
2023/08/03 09:31:39;;;;;;;6.72;5.70;;;28.00;99.90;;;;;;5027503;28;20079;-73
2023/08/03 09:34:04;;;;;;;9.55;5.90;;;28.10;99.90;;;;;;5033580;28;20025;-78
2023/08/03 09:36:30;;;;;;;8.20;5.50;;;28.10;99.90;;;;;;5032380;28;20513;-64
2023/08/03 09:39:12;;;;;;;11.07;6.53;;;28.10;99.90;;;;;;5024864;28;20037;-65
2023/08/03 09:41:38;;;;;;;10.80;6.82;;;28.10;99.90;;;;;;5032043;28;20029;-68
2023/08/03 09:44:07;;;;;;;17.83;14.07;;;28.10;99.90;;;;;;5031240;28;20341;-64
2023/08/03 09:46:34;;;;;;;34.55;26.13;;;28.20;99.90;;;;;;5030471;28;20029;-66
2023/08/03 09:49:00;;;;;;;22.05;18.23;;;28.20;99.90;;;;;;5024956;28;20025;-71
2023/08/03 09:51:29;;;;;;;17.50;13.45;;;28.20;99.90;;;;;;5020864;28;20032;-70
2023/08/03 09:54:03;;;;;;;16.50;10.70;;;28.30;99.90;;;;;;5029790;28;20033;-65
2023/08/03 09:56:33;;;;;;;16.25;11.30;;;28.40;99.90;;;;;;5026092;28;20433;-63
2023/08/03 09:59:03;;;;;;;12.65;9.30;;;28.50;99.90;;;;;;5026325;28;20061;-72
2023/08/03 10:01:31;;;;;;;75.85;67.57;;;28.60;99.90;;;;;;5017797;28;20475;-79
2023/08/03 10:04:02;;;;;;;26.15;21.25;;;28.60;99.90;;;;;;5022197;28;20030;-68
2023/08/03 10:06:34;;;;;;;20.05;17.38;;;28.80;99.90;;;;;;5022032;28;20037;-63
2023/08/03 10:09:04;;;;;;;13.02;9.98;;;;;;;;;;5021350;28;20024;-72
2023/08/03 10:11:36;;;;;;;15.52;12.38;;;;;;;;;;5031316;28;20025;-63
2023/08/03 10:14:04;;;;;;;16.73;11.50;;;;;;;;;;5029870;28;20032;-61
2023/08/03 10:16:32;;;;;;;43.67;34.95;;;;;;;;;;5032087;28;20479;-63
2023/08/03 10:19:17;;;;;;;20.60;13.95;;;;;;;;;;5023775;28;20034;-64
2023/08/03 10:21:43;;;;;;;42.13;37.83;;;;;;;;;;5020987;28;20036;-67
2023/08/03 10:24:34;;;;;;;36.10;32.30;;;;;;;;;;5033369;28;20552;-68
2023/08/03 10:27:19;;;;;;;21.30;12.50;;;;;;;;;;5021128;28;20018;-67
2023/08/03 10:29:51;;;;;;;22.08;18.90;;;;;;;;;;5028158;28;20394;-64
2023/08/03 10:32:22;;;;;;;22.85;16.73;;;;;;;;;;5029200;28;20029;-62
2023/08/03 10:34:48;;;;;;;24.52;20.48;;;;;;;;;;5028282;28;20038;-61
2023/08/03 10:37:14;;;;;;;33.22;28.33;;;;;;;;;;5032522;28;20033;-61
2023/08/03 10:39:52;;;;;;;18.48;14.90;;;;;;;;;;5025068;28;20088;-60
2023/08/03 10:42:28;;;;;;;23.52;21.02;;;;;;;;;;5020271;28;20025;-75
2023/08/03 10:44:55;;;;;;;11.95;9.32;;;;;;;;;;5021553;28;20034;-76
2023/08/03 10:47:31;;;;;;;28.70;23.73;;;;;;;;;;5020563;28;20108;-66
2023/08/03 10:49:58;;;;;;;14.77;11.73;;;;;;;;;;5029274;28;20042;-64
2023/08/03 10:52:26;;;;;;;18.85;16.30;;;;;;;;;;5029115;28;20368;-79
2023/08/03 10:54:52;;;;;;;26.17;22.40;;;;;;;;;;5031721;28;20037;-77
2023/08/03 10:57:22;;;;;;;16.92;12.50;;;;;;;;;;5032348;28;20025;-80
2023/08/03 10:59:50;;;;;;;16.08;12.43;;;;;;;;;;5033056;28;20072;-79
2023/08/03 11:02:25;;;;;;;14.95;11.93;;;;;;;;;;5032743;28;20041;-79
2023/08/03 11:04:59;;;;;;;16.20;14.43;;;;;;;;;;5033007;28;20117;-79
2023/08/03 11:07:33;;;;;;;34.47;24.98;;;;;;;;;;5031573;28;20419;-78
2023/08/03 11:10:00;;;;;;;29.52;23.95;;;;;;;;;;5033110;28;20044;-78
2023/08/03 11:12:27;;;;;;;40.83;32.55;;;;;;;;;;5031356;28;20037;-78
2023/08/03 11:14:54;;;;;;;37.63;27.25;;;;;;;;;;5032749;28;20022;-80
2023/08/03 11:17:24;;;;;;;33.70;22.48;;;;;;;;;;5031246;28;20026;-79
2023/08/03 11:19:51;;;;;;;16.88;11.88;;;;;;;;;;5026122;28;20062;-81
2023/08/03 11:22:18;;;;;;;39.55;33.22;;;;;;;;;;5024529;28;20030;-79
2023/08/03 11:24:44;;;;;;;19.85;17.75;;;28.90;99.90;;;;;;5032771;28;20026;-79
2023/08/03 11:27:11;;;;;;;22.60;18.63;;;31.40;99.90;;;;;;5032526;28;20379;-78
2023/08/03 11:29:38;;;;;;;15.13;12.32;;;;;;;;;;5032516;28;20032;-78
2023/08/03 11:32:05;;;;;;;27.23;24.38;;;;;;;;;;5031489;28;20017;-77
2023/08/03 11:34:34;;;;;;;26.85;21.65;;;;;;;;;;5031134;28;20022;-77
2023/08/03 11:40:17;;;;;;;14.25;10.85;;;;;;;;;;5019450;28;20576;-76
2023/08/03 11:42:44;;;;;;;13.43;10.82;;;;;;;;;;5032555;28;20087;-77
2023/08/03 11:45:12;;;;;;;12.45;11.15;;;;;;;;;;5032313;28;20026;-77
2023/08/03 11:47:46;;;;;;;12.25;9.80;;;;;;;;;;5032456;28;20033;-77
2023/08/03 11:50:12;;;;;;;9.80;6.55;;;;;;;;;;5032537;28;20048;-78
2023/08/03 11:52:38;;;;;;;36.10;32.72;;;;;;;;;;5032769;28;20037;-80
2023/08/03 11:55:04;;;;;;;28.23;25.30;;;;;;;;;;5032214;28;20080;-78
2023/08/03 12:00:16;;;;;;;12.10;10.50;;;;;;;;;;5032419;28;20095;-78
2023/08/03 12:02:46;;;;;;;18.98;16.13;;;;;;;;;;5034999;28;20021;-78
2023/08/03 12:05:12;;;;;;;16.05;14.35;;;;;;;;;;5036221;28;20021;-79
2023/08/03 12:07:39;;;;;;;23.80;21.30;;;;;;;;;;5035960;28;20479;-78
2023/08/03 12:10:11;;;;;;;35.55;31.95;;;;;;;;;;5035955;28;20109;-78
2023/08/03 12:12:37;;;;;;;30.45;27.38;;;;;;;;;;5034573;28;20040;-79
2023/08/03 12:15:03;;;;;;;27.02;24.35;;;;;;;;;;5035760;28;20075;-78
2023/08/03 12:17:29;;;;;;;14.10;12.68;;;;;;;;;;5034497;28;20034;-79
2023/08/03 12:19:55;;;;;;;32.10;27.55;;;;;;;;;;5035777;28;20061;-78
2023/08/03 12:22:21;;;;;;;16.70;14.93;;;;;;;;;;5035568;28;20030;-78
2023/08/03 12:24:49;;;;;;;16.52;13.50;;;34.80;99.90;;;;;;5035842;28;20032;-77
2023/08/03 12:27:14;;;;;;;15.57;13.40;;;34.70;99.90;;;;;;5035477;28;20112;-78
2023/08/03 12:29:40;;;;;;;20.33;17.80;;;35.00;99.90;;;;;;5035087;28;20155;-79
2023/08/03 12:32:07;;;;;;;27.08;22.75;;;35.40;99.90;;;;;;5035454;28;20559;-79
2023/08/03 12:34:32;;;;;;;31.08;27.55;;;34.20;99.90;;;;;;5036031;28;20092;-78
2023/08/03 12:37:17;;;;;;;29.98;26.92;;;;;;;;;;5035386;28;20475;-78
2023/08/03 12:39:43;;;;;;;25.33;22.25;;;;;;;;;;5021589;28;20497;-78
2023/08/03 12:42:09;;;;;;;23.85;21.25;;;;;;;;;;5035797;28;20049;-78
2023/08/03 12:44:35;;;;;;;15.15;10.43;;;;;;;;;;5035235;28;20112;-79
2023/08/03 12:47:01;;;;;;;30.05;25.10;;;;;;;;;;5035147;28;20426;-79
2023/08/03 12:49:35;;;;;;;21.48;18.60;;;;;;;;;;5035372;28;20403;-79
2023/08/03 12:52:02;;;;;;;15.00;13.48;;;;;;;;;;5034053;28;20079;-79
2023/08/03 12:54:28;;;;;;;11.90;10.13;;;;;;;;;;5034450;28;20126;-79
2023/08/03 12:56:53;;;;;;;17.65;13.55;;;33.80;99.90;;;;;;5047952;28;20389;-79
2023/08/03 12:59:19;;;;;;;21.75;19.42;;;33.50;99.90;;;;;;5036933;28;20053;-79
2023/08/03 13:01:44;;;;;;;16.95;13.25;;;33.40;99.90;;;;;;5036051;28;20052;-78
2023/08/03 13:04:22;;;;;;;18.95;17.15;;;33.30;99.90;;;;;;5035463;28;20383;-78
2023/08/03 13:06:48;;;;;;;21.17;16.27;;;33.20;99.90;;;;;;5035616;28;20045;-79
2023/08/03 13:09:14;;;;;;;16.42;13.77;;;32.90;99.90;;;;;;5035580;28;20026;-78